Khmel'Nyts'Kyi, Ukraine
Current Conditions -  °F | °C
As of 7:00 PM on Wednesday 28 Jan 2015 (Local Time) from UKLN Reporting Station
Broken Clouds Broken Clouds  
Wind Chill: 34°   Ceiling: 2700
Heat Index: 34°   Visibility: 6mi
Dew Point: 30°   Wind: 0mph
Humidity: 87%   Direction: NA
Pressure: 29.91"   Gusts: NA
Location:  49.42°N, 27°E
Report Text: UKLN 281600Z 00000MPS 9999 BKN027 01/M01 Q1013 1509//70 NOSIG
Loading
Personal Weather Stations






























Interactive Weather Map New forecast layout! Learn more

10-Day Weather Forecast

Advertisements
Track Severe Weather on mobile